createdAt,value
2022-11-28T02:01:38.747Z,99130.47
2022-11-28T02:02:46.458Z,99133.72
2022-11-28T02:03:50.304Z,99135.31
2022-11-28T02:04:53.334Z,99133.38
2022-11-28T02:05:57.032Z,99124.56
2022-11-28T02:06:59.365Z,99131.31
2022-11-28T02:08:02.625Z,99132.06
2022-11-28T02:09:09.540Z,99120.94
2022-11-28T02:10:17.353Z,99121.81
2022-11-28T02:11:34.466Z,99122.47
2022-11-28T02:12:48.730Z,99120.44
2022-11-28T02:14:28.451Z,99118.50
2022-11-28T02:16:03.391Z,99116.59
2022-11-28T02:17:26.876Z,99107.53
2022-11-28T02:18:59.712Z,99114.56
2022-11-28T02:20:29.051Z,99113.91
2022-11-28T02:21:44.090Z,99117.72
2022-11-28T02:23:03.468Z,99124.16
2022-11-28T02:24:25.535Z,99118.81
2022-11-28T02:26:05.577Z,99119.81
2022-11-28T02:27:26.561Z,99115.53
2022-11-28T02:28:49.945Z,99115.03
2022-11-28T02:30:21.208Z,99119.22
2022-11-28T02:32:02.066Z,99112.28
2022-11-28T02:33:09.542Z,99109.72
2022-11-28T02:34:30.825Z,99105.72
2022-11-28T02:35:40.396Z,99105.78
2022-11-28T02:36:51.191Z,99102.00
2022-11-28T02:37:56.111Z,99100.69
2022-11-28T02:39:08.356Z,99107.38
2022-11-28T02:40:42.742Z,99111.69
2022-11-28T02:41:54.745Z,99113.16
2022-11-28T02:42:59.625Z,99123.50
2022-11-28T02:44:19.066Z,99113.88
2022-11-28T02:45:45.681Z,99113.97
2022-11-28T02:46:50.890Z,99112.03
2022-11-28T02:48:05.601Z,99114.28
2022-11-28T02:49:15.863Z,99104.81
2022-11-28T02:50:33.914Z,99108.16
2022-11-28T02:51:41.798Z,99106.13
2022-11-28T02:52:51.438Z,99101.47
2022-11-28T02:53:55.066Z,99101.41
2022-11-28T02:54:58.610Z,99101.25
2022-11-28T02:56:01.029Z,99094.28
2022-11-28T02:57:03.390Z,99091.56
2022-11-28T02:58:05.789Z,99088.09
2022-11-28T02:59:28.210Z,99085.53
2022-11-28T03:00:36.128Z,99082.19
2022-11-28T03:01:39.127Z,99092.69
2022-11-28T03:02:43.707Z,99077.19
2022-11-28T03:04:12.785Z,99078.78
2022-11-28T03:05:27.106Z,99073.56
2022-11-28T03:07:06.268Z,99085.00
2022-11-28T03:08:17.425Z,99084.88
2022-11-28T03:09:41.086Z,99081.38
2022-11-28T03:11:01.894Z,99069.09
2022-11-28T03:12:15.824Z,99071.13
2022-11-28T03:13:41.724Z,99069.84
2022-11-28T03:14:53.984Z,99070.69
2022-11-28T03:16:06.175Z,99069.88
2022-11-28T03:17:32.216Z,99071.41
2022-11-28T03:18:45.973Z,99073.28
2022-11-28T03:20:22.108Z,99071.47
2022-11-28T03:21:55.594Z,99074.81
2022-11-28T03:22:57.598Z,99067.91
2022-11-28T03:24:02.885Z,99073.91
2022-11-28T03:25:21.514Z,99076.47
2022-11-28T03:26:34.837Z,99065.16
2022-11-28T03:27:51.662Z,99077.28
2022-11-28T03:29:02.756Z,99079.91
2022-11-28T03:30:24.820Z,99068.72
2022-11-28T03:31:35.177Z,99079.69
2022-11-28T03:32:40.575Z,99076.50
2022-11-28T03:33:48.986Z,99074.75
2022-11-28T03:34:59.236Z,99077.38
2022-11-28T03:36:16.030Z,99072.00
2022-11-28T03:37:24.412Z,99065.75
2022-11-28T03:38:36.221Z,99067.19
2022-11-28T03:39:44.223Z,99063.53
2022-11-28T03:40:50.949Z,99060.03
2022-11-28T03:42:35.422Z,99061.81
2022-11-28T03:43:43.387Z,99070.19
2022-11-28T03:44:50.162Z,99064.13
2022-11-28T03:45:59.306Z,99062.47
2022-11-28T03:47:04.462Z,99057.28
2022-11-28T03:48:26.513Z,99067.47
2022-11-28T03:49:37.936Z,99063.94
2022-11-28T03:50:53.334Z,99057.03
2022-11-28T03:52:01.636Z,99066.53
2022-11-28T03:53:09.934Z,99071.75
2022-11-28T03:54:17.811Z,99072.81
2022-11-28T03:55:30.572Z,99073.94
2022-11-28T03:56:55.418Z,99077.59
2022-11-28T03:58:11.686Z,99078.25
2022-11-28T03:59:20.266Z,99074.75
2022-11-28T04:00:22.802Z,99070.38
2022-11-28T04:01:44.028Z,99074.63
2022-11-28T04:03:15.870Z,99073.06
2022-11-28T04:04:54.995Z,99063.38
2022-11-28T04:06:05.145Z,99078.03
2022-11-28T04:07:36.653Z,99077.41
2022-11-28T04:08:45.664Z,99099.06
2022-11-28T04:09:53.657Z,99092.19
2022-11-28T04:11:21.103Z,99086.16
2022-11-28T04:12:46.105Z,99083.63
2022-11-28T04:14:00.545Z,99087.31
2022-11-28T04:15:19.675Z,99094.63
2022-11-28T04:16:53.591Z,99094.47
2022-11-28T04:18:05.671Z,99089.94
2022-11-28T04:19:22.770Z,99088.09
2022-11-28T04:20:45.062Z,99082.78
2022-11-28T04:21:52.191Z,99091.19
2022-11-28T04:22:59.600Z,99090.91
2022-11-28T04:24:06.970Z,99087.41
2022-11-28T04:25:13.866Z,99078.84
2022-11-28T04:26:22.150Z,99072.69
2022-11-28T04:27:31.778Z,99083.66
2022-11-28T04:28:36.190Z,99075.69
2022-11-28T04:29:46.389Z,99081.72
2022-11-28T04:30:51.929Z,99076.75
2022-11-28T04:31:58.264Z,99080.28
2022-11-28T04:33:05.062Z,99084.75
2022-11-28T04:34:12.571Z,99073.56
2022-11-28T04:35:39.900Z,99074.78
2022-11-28T04:36:44.846Z,99070.00
2022-11-28T04:37:48.898Z,99077.28
2022-11-28T04:38:56.674Z,99064.19
2022-11-28T04:40:00.830Z,99071.03
2022-11-28T04:41:10.893Z,99081.28
2022-11-28T04:42:18.092Z,99079.59
2022-11-28T04:43:28.774Z,99070.91
2022-11-28T04:44:40.198Z,99065.97
2022-11-28T04:45:53.621Z,99074.44
2022-11-28T04:46:57.499Z,99076.97
2022-11-28T04:48:00.193Z,99072.56
2022-11-28T04:49:02.569Z,99072.66
2022-11-28T04:50:05.707Z,99063.03
2022-11-28T04:51:32.382Z,99072.50
2022-11-28T04:52:52.468Z,99077.75
2022-11-28T04:54:06.570Z,99084.81
2022-11-28T04:55:32.848Z,99076.09
2022-11-28T04:56:44.621Z,99067.34
2022-11-28T04:57:57.312Z,99076.69
2022-11-28T04:59:00.928Z,99082.72
2022-11-28T05:00:07.930Z,99079.25
2022-11-28T05:01:14.302Z,99084.44
2022-11-28T05:02:19.455Z,99076.63
2022-11-28T05:03:22.782Z,99079.22
2022-11-28T05:04:25.322Z,99082.75
2022-11-28T05:05:29.798Z,99084.44
2022-11-28T05:06:35.544Z,99091.38
2022-11-28T05:07:37.772Z,99092.81
2022-11-28T05:08:40.119Z,99085.22
2022-11-28T05:09:42.354Z,99092.53
2022-11-28T05:10:45.758Z,99083.38
2022-11-28T05:11:47.932Z,99083.66
2022-11-28T05:12:50.172Z,99082.97
2022-11-28T05:13:52.762Z,99085.44
2022-11-28T05:14:54.966Z,99082.50
2022-11-28T05:16:00.891Z,99073.56
2022-11-28T05:17:03.158Z,99078.47
2022-11-28T05:18:05.811Z,99074.03
2022-11-28T05:19:08.080Z,99075.56
2022-11-28T05:20:10.660Z,99074.59
2022-11-28T05:21:13.105Z,99073.91
2022-11-28T05:22:15.316Z,99064.84
2022-11-28T05:23:17.520Z,99067.34
2022-11-28T05:24:19.962Z,99076.63
2022-11-28T05:25:22.383Z,99067.84
2022-11-28T05:26:25.929Z,99066.34
2022-11-28T05:27:28.177Z,99066.50
2022-11-28T05:28:30.346Z,99070.91
2022-11-28T05:29:32.594Z,99065.63
2022-11-28T05:30:34.795Z,99069.91
2022-11-28T05:31:37.742Z,99063.59
2022-11-28T05:32:39.953Z,99064.25
2022-11-28T05:33:42.187Z,99068.44
2022-11-28T05:34:44.625Z,99067.41
2022-11-28T05:35:47.021Z,99067.41
2022-11-28T05:36:49.231Z,99065.75
2022-11-28T05:37:51.546Z,99060.75
2022-11-28T05:38:53.777Z,99075.91
2022-11-28T05:39:56.093Z,99079.56
2022-11-28T05:40:59.531Z,99077.22
2022-11-28T05:42:01.831Z,99075.72
2022-11-28T05:43:04.259Z,99066.19
2022-11-28T05:44:06.566Z,99059.53
2022-11-28T05:45:09.301Z,99059.50
2022-11-28T05:46:11.576Z,99076.59
2022-11-28T05:47:15.725Z,99065.28
2022-11-28T05:48:18.053Z,99066.16
2022-11-28T05:49:21.603Z,99064.53
2022-11-28T05:50:23.769Z,99068.78
2022-11-28T05:51:26.094Z,99061.00
2022-11-28T05:52:32.285Z,99059.31
2022-11-28T05:53:34.872Z,99059.41
2022-11-28T05:54:37.182Z,99066.19
2022-11-28T05:55:40.125Z,99055.78
2022-11-28T05:56:42.707Z,99068.84
2022-11-28T05:57:45.049Z,99053.44
2022-11-28T05:58:47.281Z,99049.19
2022-11-28T05:59:49.568Z,99062.81
2022-11-28T06:00:51.827Z,99060.75
2022-11-28T06:01:54.043Z,99060.72
2022-11-28T06:03:01.104Z,99052.91
2022-11-28T06:04:04.162Z,99055.78
2022-11-28T06:05:27.307Z,99048.91
2022-11-28T06:06:32.175Z,99056.75
2022-11-28T06:07:34.460Z,99046.41
2022-11-28T06:13:17.717Z,99045.38
2022-11-28T06:14:20.226Z,99040.63
2022-11-28T06:15:22.459Z,99040.66
2022-11-28T06:16:27.846Z,99037.72
2022-11-28T06:17:31.514Z,99042.31
2022-11-28T06:18:33.839Z,99036.31
2022-11-28T06:19:36.082Z,99033.25
2022-11-28T06:20:38.275Z,99030.03
2022-11-28T06:21:40.582Z,99030.94
2022-11-28T06:22:43.112Z,99031.91
2022-11-28T06:23:45.273Z,99033.75
2022-11-28T06:24:47.576Z,99036.25
2022-11-28T06:25:49.813Z,99041.13
2022-11-28T06:26:52.231Z,99035.06
2022-11-28T06:27:54.410Z,99046.84
2022-11-28T06:28:56.633Z,99040.66
2022-11-28T06:29:58.926Z,99049.94
2022-11-28T06:31:01.426Z,99042.00
2022-11-28T06:32:04.389Z,99040.19
2022-11-28T06:33:06.624Z,99044.50
2022-11-28T06:34:11.746Z,99040.53
2022-11-28T06:35:13.996Z,99045.84
2022-11-28T06:36:17.804Z,99040.53
2022-11-28T06:37:20.039Z,99044.50
2022-11-28T06:38:22.226Z,99045.28
2022-11-28T06:39:24.575Z,99053.16
2022-11-28T06:40:26.865Z,99046.38
2022-11-28T06:41:29.100Z,99056.91
2022-11-28T06:42:31.406Z,99052.44
2022-11-28T06:43:34.026Z,99046.19
2022-11-28T06:44:36.301Z,99055.94
2022-11-28T06:45:38.565Z,99051.78
2022-11-28T06:46:41.453Z,99057.88
2022-11-28T06:47:43.701Z,99057.25
2022-11-28T06:48:47.172Z,99054.72
2022-11-28T06:49:49.577Z,99058.22
2022-11-28T06:50:52.814Z,99064.25
2022-11-28T06:51:55.033Z,99060.75
2022-11-28T06:52:57.308Z,99073.56
2022-11-28T06:53:59.487Z,99069.09
2022-11-28T06:55:01.760Z,99063.75
2022-11-28T06:56:06.024Z,99065.63
2022-11-28T06:57:08.292Z,99071.84
2022-11-28T06:58:10.499Z,99073.69
2022-11-28T06:59:13.072Z,99078.03
2022-11-28T07:00:15.916Z,99073.75
2022-11-28T07:01:20.233Z,99069.28
2022-11-28T07:02:24.940Z,99069.22
2022-11-28T07:03:27.213Z,99073.69
2022-11-28T07:04:29.684Z,99078.81
2022-11-28T07:05:32.096Z,99078.50
2022-11-28T07:06:34.717Z,99076.63
2022-11-28T07:07:50.268Z,99076.09
2022-11-28T07:08:58.534Z,99080.03
2022-11-28T07:10:00.727Z,99073.13
2022-11-28T07:11:14.630Z,99077.59
2022-11-28T07:12:17.291Z,99075.03
2022-11-28T07:13:19.803Z,99074.75
2022-11-28T07:14:22.076Z,99075.41
2022-11-28T07:15:25.614Z,99073.19
2022-11-28T07:16:31.500Z,99074.19
2022-11-28T07:17:34.564Z,99076.75
2022-11-28T07:18:36.880Z,99080.88
2022-11-28T07:19:39.107Z,99076.22
2022-11-28T07:20:41.342Z,99075.16
2022-11-28T07:21:43.634Z,99082.72
2022-11-28T07:22:48.108Z,99068.88
2022-11-28T07:23:50.523Z,99079.25
2022-11-28T07:24:52.745Z,99082.72
2022-11-28T07:25:59.781Z,99081.81
2022-11-28T07:27:02.039Z,99092.88
2022-11-28T07:28:04.427Z,99087.59
2022-11-28T07:29:07.484Z,99092.63
2022-11-28T07:30:10.418Z,99086.50
2022-11-28T07:31:21.806Z,99082.25
2022-11-28T07:32:24.107Z,99091.19
2022-11-28T07:33:26.291Z,99089.72
2022-11-28T07:34:28.654Z,99087.81
2022-11-28T07:35:33.679Z,99089.38
2022-11-28T07:36:36.161Z,99092.00
2022-11-28T07:37:38.416Z,99087.00
2022-11-28T07:38:40.672Z,99088.91
2022-11-28T07:39:44.597Z,99088.06
2022-11-28T07:40:47.010Z,99088.34
2022-11-28T07:41:49.558Z,99078.03
2022-11-28T07:42:51.853Z,99090.81
2022-11-28T07:44:02.485Z,99089.50
2022-11-28T07:45:05.398Z,99088.78
2022-11-28T07:46:11.096Z,99091.44
2022-11-28T07:47:13.320Z,99092.13
2022-11-28T07:48:15.517Z,99085.91
2022-11-28T07:49:17.704Z,99093.53
2022-11-28T07:50:19.945Z,99095.16
2022-11-28T07:51:28.564Z,99087.09
2022-11-28T07:52:30.754Z,99081.47
2022-11-28T07:53:32.922Z,99080.41
2022-11-28T07:54:35.112Z,99088.19
2022-11-28T07:55:37.306Z,99079.53
2022-11-28T07:57:10.946Z,99082.00
2022-11-28T07:58:01.892Z,99078.47
2022-11-28T07:59:04.563Z,99082.78
2022-11-28T08:00:07.440Z,99082.00
2022-11-28T08:01:19.927Z,99074.03
2022-11-28T08:02:22.172Z,99074.34
2022-11-28T08:03:24.479Z,99075.59
2022-11-28T08:04:26.784Z,99073.84
2022-11-28T08:05:29.134Z,99077.78
2022-11-28T08:06:35.108Z,99079.75
2022-11-28T08:07:37.484Z,99074.59
2022-11-28T08:08:40.150Z,99078.38
2022-11-28T08:09:42.569Z,99079.50
2022-11-28T08:10:46.252Z,99078.03
2022-11-28T08:11:49.207Z,99072.31
2022-11-28T08:12:51.488Z,99072.81
2022-11-28T08:13:56.404Z,99076.81
2022-11-28T08:15:00.293Z,99082.09
2022-11-28T08:16:06.953Z,99085.00
2022-11-28T08:17:09.611Z,99084.28
2022-11-28T08:18:12.950Z,99084.09
2022-11-28T08:19:15.959Z,99089.97
2022-11-28T08:20:18.227Z,99085.84
2022-11-28T08:21:26.539Z,99084.91
2022-11-28T08:22:28.708Z,99072.81
2022-11-28T08:23:31.135Z,99089.09
2022-11-28T08:24:33.427Z,99078.38
2022-11-28T08:25:35.763Z,99072.38
2022-11-28T08:26:38.271Z,99072.19
2022-11-28T08:27:40.523Z,99081.88
2022-11-28T08:28:43.287Z,99089.00
2022-11-28T08:29:50.322Z,99089.16
2022-11-28T08:30:54.287Z,99086.44
2022-11-28T08:31:56.588Z,99076.75
2022-11-28T08:32:59.253Z,99085.41
2022-11-28T08:34:04.211Z,99083.63
2022-11-28T08:35:07.208Z,99080.81
2022-11-28T08:36:11.845Z,99086.78
2022-11-28T08:37:14.058Z,99077.09
2022-11-28T08:38:16.425Z,99091.19
2022-11-28T08:39:26.234Z,99078.78
2022-11-28T08:40:28.737Z,99075.34
2022-11-28T08:41:31.006Z,99078.25
2022-11-28T08:42:33.416Z,99068.09
2022-11-28T08:43:37.179Z,99074.22
2022-11-28T08:44:39.512Z,99082.88
2022-11-28T08:45:41.935Z,99073.28
2022-11-28T08:46:44.331Z,99066.88
2022-11-28T08:47:46.592Z,99067.00
2022-11-28T08:48:50.462Z,99065.25
2022-11-28T08:49:52.661Z,99082.50
2022-11-28T08:50:54.975Z,99075.59
2022-11-28T08:51:57.269Z,99074.00
2022-11-28T08:53:01.720Z,99073.97
2022-11-28T08:54:09.815Z,99076.59
2022-11-28T08:55:12.129Z,99077.47
2022-11-28T08:56:14.331Z,99069.69
2022-11-28T08:57:16.596Z,99065.25
2022-11-28T08:58:18.844Z,99074.53
2022-11-28T08:59:21.209Z,99075.25
2022-11-28T09:00:23.539Z,99076.81
2022-11-28T09:01:26.640Z,99073.34
2022-11-28T09:02:29.005Z,99065.31
2022-11-28T09:03:31.281Z,99075.69
2022-11-28T09:04:33.543Z,99072.06
2022-11-28T09:05:35.866Z,99077.31
2022-11-28T09:06:41.111Z,99076.53
2022-11-28T09:07:43.378Z,99079.22
2022-11-28T09:08:46.046Z,99071.75
2022-11-28T09:09:49.113Z,99070.13
2022-11-28T09:10:51.458Z,99074.41
2022-11-28T09:11:53.624Z,99079.50
2022-11-28T09:12:55.779Z,99079.25
2022-11-28T09:13:59.409Z,99077.69
2022-11-28T09:15:01.673Z,99079.66
2022-11-28T09:16:04.357Z,99078.75
2022-11-28T09:17:06.625Z,99075.19
2022-11-28T09:18:09.748Z,99073.09
2022-11-28T09:19:12.014Z,99071.22
2022-11-28T09:20:14.260Z,99067.19
2022-11-28T09:21:16.684Z,99074.28
2022-11-28T09:22:19.195Z,99070.50
2022-11-28T09:23:21.447Z,99069.16
2022-11-28T09:24:23.696Z,99070.53
2022-11-28T09:25:25.954Z,99069.88
2022-11-28T09:26:29.861Z,99083.03
2022-11-28T09:27:32.040Z,99081.28
2022-11-28T09:28:34.372Z,99081.25
2022-11-28T09:29:36.567Z,99068.06
2022-11-28T09:30:38.862Z,99078.94
2022-11-28T09:31:47.005Z,99074.31
2022-11-28T09:32:50.299Z,99077.63
2022-11-28T09:33:53.375Z,99080.75
2022-11-28T09:34:55.632Z,99083.13
2022-11-28T09:35:58.390Z,99074.97
2022-11-28T09:37:04.624Z,99090.19
2022-11-28T09:38:07.596Z,99081.38
2022-11-28T09:39:10.049Z,99078.38
2022-11-28T09:40:31.383Z,99085.94
2022-11-28T09:41:55.429Z,99081.34
2022-11-28T09:43:00.990Z,99085.00
2022-11-28T09:44:12.250Z,99077.69
2022-11-28T09:45:23.392Z,99085.28
2022-11-28T09:46:30.902Z,99087.09
2022-11-28T09:47:36.886Z,99083.81
2022-11-28T09:48:47.225Z,99085.56
2022-11-28T09:49:59.835Z,99090.81
2022-11-28T09:51:28.313Z,99080.97
2022-11-28T09:52:43.200Z,99095.41
2022-11-28T09:54:02.638Z,99091.75
2022-11-28T09:55:40.100Z,99091.03
2022-11-28T09:56:44.429Z,99085.13
2022-11-28T09:57:51.486Z,99095.56
2022-11-28T09:59:03.484Z,99097.22
2022-11-28T10:00:11.170Z,99092.75
2022-11-28T10:01:28.065Z,99096.28
2022-11-28T10:02:43.814Z,99099.41
2022-11-28T10:04:10.226Z,99096.13
2022-11-28T10:05:37.033Z,99092.53
2022-11-28T10:07:04.155Z,99093.41
2022-11-28T10:08:43.054Z,99090.56
2022-11-28T10:10:03.211Z,99092.25
2022-11-28T10:11:44.512Z,99090.38
2022-11-28T10:13:15.173Z,99095.13
2022-11-28T10:15:00.907Z,99093.56
2022-11-28T10:16:12.176Z,99088.34
2022-11-28T10:17:26.335Z,99085.13
2022-11-28T10:19:04.363Z,99084.66
2022-11-28T10:20:19.937Z,99080.66
2022-11-28T10:21:57.933Z,99087.63
2022-11-28T10:23:28.256Z,99078.59
2022-11-28T10:24:47.912Z,99071.09
2022-11-28T10:26:16.872Z,99082.09
2022-11-28T10:27:25.432Z,99085.59
2022-11-28T10:28:38.726Z,99080.34
2022-11-28T10:29:50.239Z,99082.81
2022-11-28T10:31:21.351Z,99074.56
2022-11-28T10:32:47.351Z,99081.03
2022-11-28T10:34:02.443Z,99072.81
2022-11-28T10:35:26.777Z,99077.78
2022-11-28T10:36:51.958Z,99062.44
2022-11-28T10:37:54.504Z,99071.09
2022-11-28T10:38:57.658Z,99070.41
2022-11-28T10:40:29.134Z,99066.72
2022-11-28T10:41:36.874Z,99073.03
2022-11-28T10:42:51.719Z,99070.34
2022-11-28T10:44:21.307Z,99071.75
2022-11-28T10:45:36.197Z,99075.75
2022-11-28T10:46:57.696Z,99067.00
2022-11-28T10:48:37.992Z,99065.94
2022-11-28T10:50:00.902Z,99062.63
2022-11-28T10:51:30.822Z,99066.34
2022-11-28T10:52:53.501Z,99053.47
2022-11-28T10:54:26.933Z,99073.75
2022-11-28T10:55:47.688Z,99067.31
2022-11-28T10:57:17.418Z,99069.00
2022-11-28T10:58:46.836Z,99060.53
2022-11-28T11:00:14.574Z,99053.69
2022-11-28T11:01:17.377Z,99060.72
2022-11-28T11:02:22.442Z,99049.88
2022-11-28T11:03:29.781Z,99054.22
2022-11-28T11:04:35.442Z,99047.47
2022-11-28T11:05:37.910Z,99052.16
2022-11-28T11:07:00.798Z,99050.09
2022-11-28T11:08:11.530Z,99054.38
2022-11-28T11:09:13.954Z,99052.34
2022-11-28T11:10:22.782Z,99052.59
2022-11-28T11:11:37.095Z,99047.56
2022-11-28T11:12:40.722Z,99048.09
2022-11-28T11:14:02.858Z,99039.41
2022-11-28T11:15:31.293Z,99040.63
2022-11-28T11:16:53.747Z,99042.38
2022-11-28T11:17:56.419Z,99035.25
2022-11-28T11:18:58.686Z,99038.03
2022-11-28T11:20:01.170Z,99034.59
2022-11-28T11:21:18.812Z,99033.34
2022-11-28T11:22:28.600Z,99030.88
2022-11-28T11:23:35.306Z,99029.66
2022-11-28T11:24:40.641Z,99021.25
2022-11-28T11:25:52.530Z,99028.44
2022-11-28T11:27:22.328Z,99024.16
2022-11-28T11:28:39.255Z,99021.72
2022-11-28T11:29:44.044Z,99019.91
2022-11-28T11:30:47.275Z,99022.38
2022-11-28T11:31:53.773Z,99021.34
2022-11-28T11:32:58.349Z,99020.03
2022-11-28T11:34:18.532Z,99027.03
2022-11-28T11:35:27.852Z,99019.28
2022-11-28T11:36:33.170Z,99009.84
2022-11-28T11:37:37.754Z,99010.72
2022-11-28T11:38:40.221Z,99007.88
2022-11-28T11:39:50.679Z,99015.22
2022-11-28T11:40:53.057Z,99006.38
2022-11-28T11:42:11.954Z,98999.25
2022-11-28T11:43:32.496Z,99015.91
2022-11-28T11:44:35.007Z,99012.78
2022-11-28T11:45:37.470Z,99007.06
2022-11-28T11:47:01.707Z,99011.38
2022-11-28T11:48:04.283Z,99013.38
2022-11-28T11:49:06.578Z,99014.41
2022-11-28T11:50:20.346Z,99014.22
2022-11-28T11:51:25.827Z,99012.69
2022-11-28T11:52:28.213Z,99010.09
2022-11-28T11:53:30.524Z,99008.47
2022-11-28T11:54:32.956Z,99016.09
2022-11-28T11:55:44.558Z,99016.63
2022-11-28T11:57:00.703Z,99010.94
2022-11-28T11:58:16.151Z,99009.53
2022-11-28T11:59:24.302Z,99015.38
2022-11-28T12:00:34.694Z,99005.56
2022-11-28T12:01:39.273Z,99006.34
2022-11-28T12:03:04.699Z,99005.47
2022-11-28T12:04:43.313Z,99007.66
2022-11-28T12:07:26.595Z,99005.72
2022-11-28T12:08:36.284Z,99005.06
2022-11-28T12:09:44.427Z,99007.88
2022-11-28T12:10:53.515Z,98998.91
2022-11-28T12:12:14.606Z,99010.44
2022-11-28T12:13:21.911Z,99000.72
2022-11-28T12:14:31.448Z,99001.31
2022-11-28T12:15:36.301Z,99003.22
2022-11-28T12:17:32.721Z,99002.84
2022-11-28T12:18:43.801Z,99004.75
2022-11-28T12:20:10.932Z,99003.91
2022-11-28T12:21:17.945Z,98998.53
2022-11-28T12:22:46.287Z,98998.16
2022-11-28T12:24:15.715Z,98997.72
2022-11-28T12:25:29.895Z,98998.22
2022-11-28T12:27:04.104Z,98996.41
2022-11-28T12:28:21.700Z,98991.91
2022-11-28T12:29:38.254Z,98995.94
2022-11-28T12:31:00.911Z,98983.84
2022-11-28T12:32:32.699Z,98979.19
2022-11-28T12:34:06.959Z,98988.66
2022-11-28T12:35:28.229Z,98983.03
2022-11-28T12:36:39.301Z,98982.25
2022-11-28T12:38:14.803Z,98986.84
2022-11-28T12:39:38.430Z,98987.81
2022-11-28T12:40:49.816Z,98989.81
2022-11-28T12:42:09.492Z,98993.63
2022-11-28T12:43:46.716Z,98985.59
2022-11-28T12:45:26.410Z,98988.16
2022-11-28T12:46:52.731Z,98981.78
2022-11-28T12:48:08.878Z,98971.63
2022-11-28T12:49:44.271Z,98973.59
2022-11-28T12:50:52.706Z,98975.22
2022-11-28T12:52:00.757Z,98974.28
2022-11-28T12:53:36.753Z,98972.53
2022-11-28T12:54:56.931Z,98966.00
2022-11-28T12:56:24.743Z,98972.91
2022-11-28T12:57:44.970Z,98967.13
2022-11-28T12:58:55.012Z,98972.09
2022-11-28T13:00:09.707Z,98966.31
2022-11-28T13:01:32.135Z,98969.75
2022-11-28T13:02:59.615Z,98972.06
2022-11-28T13:04:25.127Z,98970.09
2022-11-28T13:05:39.635Z,98973.47
2022-11-28T13:07:02.836Z,98972.41
2022-11-28T13:08:54.242Z,98971.28
2022-11-28T13:10:26.577Z,98959.69
2022-11-28T13:11:43.073Z,98965.69
2022-11-28T13:13:13.054Z,98967.13
2022-11-28T13:14:47.950Z,98963.59
2022-11-28T13:15:59.434Z,98958.03
2022-11-28T13:17:27.381Z,98960.31
2022-11-28T13:18:48.508Z,98957.22
2022-11-28T13:19:56.529Z,98950.25
2022-11-28T13:21:09.361Z,98955.75
2022-11-28T13:22:15.391Z,98955.53
2022-11-28T13:23:28.456Z,98957.13
2022-11-28T13:24:39.525Z,98953.69
2022-11-28T13:25:51.808Z,98949.16
2022-11-28T13:27:05.575Z,98959.22
2022-11-28T13:28:13.909Z,98959.44
2022-11-28T13:29:40.918Z,98961.84
2022-11-28T13:30:59.682Z,98948.56
2022-11-28T13:32:14.915Z,98955.59
2022-11-28T13:33:54.575Z,98959.59
2022-11-28T13:34:58.648Z,98958.09
2022-11-28T13:36:02.182Z,98958.78
2022-11-28T13:39:08.191Z,98950.63
2022-11-28T13:40:20.499Z,98952.66
2022-11-28T13:42:09.640Z,98949.16
2022-11-28T13:43:11.617Z,98948.31
2022-11-28T13:44:42.501Z,98942.41
2022-11-28T13:45:46.881Z,98947.44
2022-11-28T13:46:49.319Z,98942.31
2022-11-28T13:47:51.654Z,98948.31
2022-11-28T13:49:21.433Z,98948.25
2022-11-28T13:50:36.343Z,98943.78
2022-11-28T13:51:38.804Z,98936.38
2022-11-28T13:52:43.787Z,98948.69
2022-11-28T13:53:48.959Z,98946.31
2022-11-28T13:54:54.498Z,98943.31
2022-11-28T13:56:05.615Z,98940.03
2022-11-28T13:57:16.599Z,98945.38
2022-11-28T13:58:50.861Z,98948.25
2022-11-28T13:59:55.947Z,98944.25
2022-11-28T14:01:06.690Z,98948.38
2022-11-28T14:02:36.005Z,98941.66
2022-11-28T14:03:46.990Z,98942.75
2022-11-28T14:04:49.784Z,98949.44
2022-11-28T14:05:58.491Z,98937.44
2022-11-28T14:07:07.232Z,98947.78
2022-11-28T14:08:35.539Z,98947.44
2022-11-28T14:10:24.179Z,98950.63
2022-11-28T14:12:10.011Z,98942.22
2022-11-28T14:13:30.892Z,98943.44
2022-11-28T14:14:54.779Z,98941.91
2022-11-28T14:16:12.095Z,98939.22
2022-11-28T14:17:26.597Z,98940.56
2022-11-28T14:20:12.090Z,98936.38
2022-11-28T14:21:41.154Z,98939.56
2022-11-28T14:23:20.185Z,98941.44
2022-11-28T14:24:45.074Z,98946.97
2022-11-28T14:25:52.353Z,98943.38
2022-11-28T14:27:00.827Z,98949.34
2022-11-28T14:28:16.472Z,98947.59
2022-11-28T14:29:24.723Z,98950.19
2022-11-28T14:30:33.360Z,98951.38
2022-11-28T14:31:39.786Z,98947.03
2022-11-28T14:32:43.434Z,98956.78
2022-11-28T14:33:47.488Z,98948.09
2022-11-28T14:34:50.065Z,98953.13
2022-11-28T14:35:52.391Z,98955.22
2022-11-28T14:37:34.635Z,98953.47
2022-11-28T14:38:36.800Z,98955.31
2022-11-28T14:39:39.344Z,98953.38
2022-11-28T14:41:11.517Z,98954.34
2022-11-28T14:42:30.458Z,98958.72
2022-11-28T14:43:46.759Z,98956.78
2022-11-28T14:45:07.909Z,98951.72
2022-11-28T14:46:16.670Z,98947.78
2022-11-28T14:47:34.471Z,98962.44
2022-11-28T14:48:39.916Z,98950.25
2022-11-28T14:49:42.429Z,98955.47
2022-11-28T14:50:52.536Z,98950.25
2022-11-28T14:52:30.924Z,98958.66
2022-11-28T14:53:37.314Z,98957.22
2022-11-28T14:54:43.328Z,98952.97
2022-11-28T14:55:46.115Z,98954.75
2022-11-28T14:56:52.920Z,98962.34
2022-11-28T14:58:01.785Z,98951.50
2022-11-28T14:59:04.813Z,98957.94
2022-11-28T15:00:16.211Z,98958.88
2022-11-28T15:01:44.708Z,98959.00
2022-11-28T15:03:09.342Z,98964.44
2022-11-28T15:04:31.908Z,98968.84
2022-11-28T15:05:45.737Z,98958.44
2022-11-28T15:06:50.319Z,98964.44
2022-11-28T15:08:12.067Z,98961.47
2022-11-28T15:09:45.993Z,98966.78
2022-11-28T15:11:23.504Z,98964.09
2022-11-28T15:12:37.226Z,98952.22
2022-11-28T15:13:58.020Z,98958.03
2022-11-28T15:15:01.965Z,98964.00
2022-11-28T15:16:14.332Z,98965.78
2022-11-28T15:17:21.552Z,98961.44
2022-11-28T15:18:25.954Z,98960.84
2022-11-28T15:19:38.960Z,98961.47
2022-11-28T15:20:48.805Z,98954.94
2022-11-28T15:21:54.321Z,98956.78
2022-11-28T15:22:57.117Z,98951.69
2022-11-28T15:24:00.299Z,98949.00
2022-11-28T15:25:03.212Z,98957.16
2022-11-28T15:26:07.004Z,98958.75
2022-11-28T15:27:12.584Z,98949.94
2022-11-28T15:28:20.530Z,98953.31
2022-11-28T15:29:27.567Z,98951.28
2022-11-28T15:30:29.830Z,98954.41
2022-11-28T15:31:33.540Z,98957.63
2022-11-28T15:32:35.977Z,98954.72
2022-11-28T15:33:39.588Z,98957.28
2022-11-28T15:34:43.335Z,98960.00
2022-11-28T15:35:57.334Z,98958.81
2022-11-28T15:37:06.653Z,98954.03
2022-11-28T15:38:14.897Z,98958.00
2022-11-28T15:39:27.137Z,98951.28
2022-11-28T15:40:32.569Z,98954.59
2022-11-28T15:41:34.926Z,98956.31
2022-11-28T15:42:38.832Z,98943.84
2022-11-28T15:43:45.821Z,98960.09
2022-11-28T15:44:58.269Z,98954.63
2022-11-28T15:46:01.582Z,98963.59
2022-11-28T15:47:05.369Z,98963.84
2022-11-28T15:48:52.776Z,98961.66
2022-11-28T15:50:16.233Z,98963.03
2022-11-28T15:51:24.164Z,98959.28
2022-11-28T15:52:29.011Z,98959.28
2022-11-28T15:53:32.153Z,98953.03
2022-11-28T15:54:41.588Z,98954.47
2022-11-28T15:55:44.821Z,98952.69
2022-11-28T15:57:01.822Z,98954.47
2022-11-28T15:58:20.963Z,98955.28
2022-11-28T15:59:23.986Z,98953.91
2022-11-28T16:00:26.949Z,98961.22
2022-11-28T16:01:31.534Z,98961.94
2022-11-28T16:02:36.493Z,98955.94